Pearsall, TX (78061)

9:35 PM CDT on September 04, 2015 (GMT -0500)
Rocky Ridge Ranch | | Change Station
CLOSE
Current Station
Personal Weather Station
Location: Pearsall, TX
Elevation: 571 ft
Nearby Weather Stations

Elev 571 ft 28.84 °N, 99.15 °W | Updated 8 seconds ago

Partly Cloudy
Partly Cloudy
86.4 °F
Feels Like 93 °F
N
0.0
Wind Variable Wind from SSE
Gusts 0.0 mph

Today
High -- | Low -- °F
--% Chance of Precip.
Yesterday
High -- | Low -- °F
Precip. -- in
7:15 AM 7:54 PM
Waning Gibbous, 53% visible
Pressure 29.84 in
Visibility 10.0 miles
Clouds Few 8000 ft
Heat Index 93 °F
Dew Point 72 °F
Humidity 64%
Rainfall 0.00 in
Snow Depth Not available.
UV 0 out of 12
Pollen 9.30 out of 12
Air Quality Not available.
Flu Activity Not available.
METAR KCOT 050153Z AUTO 12009KT 10SM FEW080 32/22 A2986 RMK AO2 SLP103 T03170217
Pressure 29.84 in
Visibility 10.0 miles
Clouds Few 8000 ft
Heat Index 93 °F
Dew Point 72 °F
Humidity 64%
Rainfall 0.00 in
Snow Depth Not available.
UV 0 out of 12
Pollen 9.30 out of 12
Air Quality Not available.
Flu Activity Not available.
METAR KCOT 050153Z AUTO 12009KT 10SM FEW080 32/22 A2986 RMK AO2 SLP103 T03170217

10-Day Weather Forecast

×

Almanac

Astronomy

Sep. 04, 2015 Rise Set
Actual Time
Civil Twilight
Nautical Twilight
Astronomical Twilight
Moon
Length of Visible Light
Length of Day
Tomorrow will be .
, % of the Moon is Illuminated

Today's Extremes

State Highs State Lows

Community

WunderPhotos

Upload Photos

1,852,393 photos uploaded!

WunderBlogs® & News

Nearby

Air Quality

  Air Quality AQ Index Pollutant
Not available.

Snow Depth

Station Depth Elevation

Earthquake Activity

City Distance Mag. Time & Date
Minimum magnitude displayed is 2.5.

Coastal Water Temperatures

Place Temperature

Stations

Nearby Weather Stations

Station Location Temp. Windchill Dew Point Humidity Wind Precip. Elev Updated Type